Weather observations for the past three days for
Boca Raton, Boca Raton Airport
Metric (Imperial)
Date Time (edt) Wind (kph) Vis. (km) Weather Sky Cond. Temperature (ºC) Relative Humidity Wind Chill (°C) Heat Index (°C) Pressure Precipitation (cm)
Air Dwpt 6 hour altimeter (cm) sea level (mb) 1 hr 3 hr 6 hr
Max. Min.
31 02:55 E 7 16.09 A Few Clouds FEW022 FEW042 28 25 84% 33 76.17 0.0
31 02:35 E 7 16.09 A Few Clouds FEW022 FEW042 28 25 84% 33 76.2 0.0
31 02:15 E 7 16.09 Partly Cloudy FEW024 SCT041 28 25 84% 33 76.2 0.0
31 01:55 E 9 16.09 Partly Cloudy FEW023 SCT041 28 24 27.7 25.1 79% 32 76.23 0.0
31 01:35 E 11 16.09 Partly Cloudy SCT023 27 24 84% 30 76.25 0.0
31 01:15 E 9 16.09 Partly Cloudy SCT023 SCT042 27 25 89% 31 76.28 0.0
31 00:55 NE 6 16.09 A Few Clouds FEW019 27 25 89% 31 76.28 0.0
31 00:35 NE 6 16.09 A Few Clouds FEW019 27 25 89% 31 76.3 0.0
31 00:15 NE 4 16.09 Fair CLR 27 25 89% 31 76.3 0.0
30 23:55 NE 6 16.09 Fair CLR 27 25 89% 31 76.3 0.0
30 23:35 NE 7 16.09 A Few Clouds FEW017 27 25 89% 31 76.3 0.0
30 23:15 NE 6 16.09 Fair CLR 26 25 94% 28 76.3 0.0
30 22:53 Calm 16.09 Fair CLR 25 25 100% 25 76.3 0.0
30 21:53 Calm 16.09 Fair CLR 26 24 89% 28 76.3 0.0
30 20:53 NE 7 16.09 A Few Clouds FEW012 26 25 94% 28 76.28 0.0
30 19:53 NE 11 16.09 Partly Cloudy FEW020 SCT100 SCT120 25 24 94% 26 76.25 0.0
30 18:53 N 15 16.09 Thunderstorm in Vicinity Light Drizzle FEW020CB SCT045 BKN060 25 24 94% 26 76.28 0.0
30 17:53 NE 11 12.87 Thunderstorm Light Rain BKN020CB OVC042 27 25 89% 31 76.25 0.0
30 16:53 Vrbl 9 16.09 Thunderstorm in Vicinity FEW023CB SCT038 31 26 75% 39 76.2 0.0
30 15:53 E 15 G 30 16.09 Partly Cloudy SCT030 31 25 70% 38 76.23 0.0
30 14:53 SE 19 G 28 16.09 Thunderstorm in Vicinity SCT030 32 24 63% 38 76.25 0.0
30 13:53 E 17 G 26 16.09 Partly Cloudy SCT024 31 25 70% 38 76.3 0.0
30 12:53 E 19 G 28 16.09 Thunderstorm in Vicinity SCT021 31 26 75% 39 76.33 0.0
30 11:53 NW 19 16.09 Thunderstorm in Vicinity SCT024 29 24 74% 34 76.4 0.0
30 10:53 E 19 G 33 16.09 Thunderstorm in Vicinity SCT029 30 24 70% 35 76.4 0.0
30 09:53 SE 19 G 30 16.09 Thunderstorm in Vicinity SCT027 31 24 66% 37 76.38 0.0
30 08:53 SE 9 16.09 A Few Clouds FEW020 29 26 84% 36 76.33 0.0
30 07:53 SE 9 16.09 Fair CLR 29 25 79% 35 76.3 0.0
30 06:53 SE 11 16.09 Partly Cloudy SCT021 28 25 84% 33 76.23 0.0
30 06:15 SE 11 16.09 A Few Clouds FEW019 28 25 84% 33 76.2 0.0
30 05:55 SE 11 16.09 Partly Cloudy SCT019 28 25 84% 33 76.17 0.0
30 05:35 E 11 16.09 A Few Clouds FEW019 28 25 84% 33 76.17 0.0
30 05:15 E 15 16.09 A Few Clouds FEW019 28 25 84% 33 76.15 0.0
30 04:55 E 15 16.09 Partly Cloudy SCT019 SCT026 28 25 84% 33 76.17 0.0
30 04:35 E 11 16.09 Mostly Cloudy BKN022 BKN028 28 25 84% 33 76.17 0.0
30 04:15 E 13 16.09 Mostly Cloudy SCT022 BKN030 28 25 84% 33 76.2 0.0
30 03:55 E 13 16.09 A Few Clouds FEW022 28 25 84% 33 76.23 0.0
30 03:35 E 17 16.09 A Few Clouds FEW022 28 25 84% 33 76.23 0.0
30 03:15 E 17 G 26 16.09 Partly Cloudy SCT019 SCT026 28 25 84% 33 76.25 0.0
30 02:55 E 17 16.09 Partly Cloudy SCT021 28 25 84% 33 76.25 0.0
30 02:35 E 13 16.09 Partly Cloudy SCT019 SCT024 28 25 84% 33 76.25 0.0
30 02:15 E 17 16.09 A Few Clouds FEW019 29 25 79% 35 76.28 0.0
30 01:55 E 19 16.09 Partly Cloudy FEW019 SCT028 SCT033 29 25 79% 35 76.3 0.0
30 01:35 E 17 G 31 16.09 Mostly Cloudy BKN021 BKN028 BKN050 29 25 79% 35 76.3 0.0
30 01:15 E 22 G 30 16.09 NULL NULL 29 25 79% 35 76.33 0.0
30 00:55 E 19 G 28 16.09 Partly Cloudy FEW022 SCT042 29 25 79% 35 76.33 0.0
30 00:35 E 15 16.09 NULL NULL 28 24 79% 32 76.3 0.0
30 00:15 E 15 16.09 NULL NULL 28 25 84% 33 76.33 0.0
29 23:55 E 15 16.09 A Few Clouds FEW022 28 24 79% 32 76.35 0.0
29 23:35 E 13 16.09 Fair CLR 28 24 79% 32 76.35 0.0
29 23:15 NE 9 16.09 Fair CLR 28 23 74% 31 76.38 0.0
29 22:53 NE 9 16.09 Partly Cloudy FEW026 SCT040 27 24 84% 30 76.35 0.0
29 21:53 N 6 16.09 A Few Clouds FEW020 26 25 94% 28 76.38 0.0
29 20:53 Calm 16.09 Partly Cloudy FEW020 SCT090 26 25 94% 28 76.33 0.0
29 19:53 N 11 16.09 Partly Cloudy FEW023 SCT075 27 25 89% 31 76.28 0.0
29 18:53 NE 9 16.09 Partly Cloudy FEW020 FEW045 SCT070 28 24 79% 32 76.25 0.0
29 17:53 Calm 16.09 Mostly Cloudy SCT023 SCT045 BKN070 28 25 84% 33 76.35 0.0
29 16:53 NW 6 16.09 Partly Cloudy FEW019 FEW055 SCT080 27 24 84% 30 76.25 0.0
29 15:53 E 11 16.09 Partly Cloudy SCT030 26 24 89% 28 76.28 0.0
29 14:53 NE 7 8.05 Thunderstorm in Vicinity Rain Fog/Mist SCT025 26 25 94% 28 76.38 0.0
29 13:53 SE 7 16.09 Thunderstorm in Vicinity Rain Fog/Mist SCT020 27 25 89% 31 76.43 0.0
29 11:53 S 9 16.09 Thunderstorm in Vicinity SCT045 27 25 89% 31 76.4 0.0
29 10:53 SW 7 16.09 Thunderstorm in Vicinity SCT037 27 26 94% 31 76.4 0.0
29 09:53 S 15 3.22 Thunderstorm Light Rain Haze SCT025 28 24 79% 32 76.43 0.0
29 08:53 N 7 16.09 Thunderstorm in Vicinity SCT023 29 27 89% 37 76.38 0.0
29 07:53 N 9 16.09 Thunderstorm in Vicinity SCT030 27 26 94% 31 76.33 0.0
29 06:53 Vrbl 6 16.09 Partly Cloudy SCT030 28 26 89% 34 76.28 0.0
29 06:15 NE 2 16.09 Fair CLR 27 25 89% 31 76.25 0.0
29 05:55 Calm 16.09 A Few Clouds FEW024 FEW050 27 25 89% 31 76.23 0.0
29 05:35 NE 2 16.09 Mostly Cloudy SCT022 BKN050 28 25 84% 33 76.23 0.0
29 05:15 Vrbl 2 16.09 A Few Clouds FEW024 FEW029 FEW050 29 25 79% 35 76.23 0.0
29 04:55 E 6 16.09 Partly Cloudy FEW024 FEW036 SCT050 29 26 84% 36 76.23 0.0
29 04:35 E 6 16.09 A Few Clouds FEW022 FEW048 29 26 84% 36 76.23 0.0
29 04:15 SE 9 16.09 A Few Clouds FEW021 FEW026 FEW035 29 26 84% 36 76.23 0.0
29 03:55 E 7 16.09 Partly Cloudy SCT027 SCT035 SCT043 29 25 79% 35 76.23 0.0
29 03:35 E 9 16.09 A Few Clouds FEW024 29 25 79% 35 76.23 0.0
29 03:15 SE 13 16.09 A Few Clouds FEW023 29 25 79% 35 76.23 0.0
29 02:55 SE 9 16.09 A Few Clouds FEW023 29 25 79% 35 76.25 0.0
29 02:35 SE 13 16.09 Fair CLR 29 25 79% 35 76.25 0.0
29 02:15 E 13 16.09 Fair CLR 29 25 79% 35 76.25 0.0
29 01:55 E 9 16.09 Fair CLR 29 25 30.4 29.2 79% 35 76.25 0.0
29 01:35 E 9 16.09 Fair CLR 29 25 79% 35 76.25 0.0
29 01:15 E 15 16.09 Fair CLR 29 25 79% 35 76.28 0.0
29 00:55 E 11 16.09 Fair CLR 29 25 79% 35 76.3 0.0
29 00:35 E 13 16.09 Fair CLR 30 25 75% 36 76.3 0.0
29 00:15 Vrbl 11 16.09 Fair CLR 30 25 75% 36 76.33 0.0
28 23:55 E 9 16.09 Fair CLR 30 24 70% 35 76.33 0.0
28 23:35 E 11 16.09 Fair CLR 30 25 75% 36 76.35 0.0
28 23:15 E 9 16.09 Fair CLR 30 25 75% 36 76.35 0.0
28 22:53 E 9 16.09 A Few Clouds FEW029 30 25 75% 36 76.35 0.0
28 21:53 E 7 16.09 A Few Clouds FEW030 30 24 70% 35 76.35 0.0
28 20:53 E 7 16.09 A Few Clouds FEW030 30 24 70% 35 76.28 0.0
28 19:53 E 9 16.09 A Few Clouds FEW028 30 23 66% 34 76.25 0.0
28 18:53 Calm 16.09 Partly Cloudy SCT028 SCT080 31 24 66% 37 76.23 0.0
28 17:53 Calm 16.09 Partly Cloudy FEW028 SCT060 30 23 66% 34 76.25 0.0
28 16:53 Vrbl 6 16.09 Thunderstorm in Vicinity FEW032CB SCT060 32 24 63% 38 76.28 0.0
28 15:53 E 22 G 30 16.09 Thunderstorm in Vicinity FEW032CB 33 25 63% 41 76.23 0.0
28 14:53 SE 15 16.09 A Few Clouds FEW032 33 25 63% 41 76.28 0.0
28 13:53 SE 17 G 26 16.09 A Few Clouds FEW032 33 25 63% 41 76.35 0.0
28 11:53 SE 11 16.09 Partly Cloudy SCT025 33 25 63% 41 76.43 0.0
28 10:53 S 15 16.09 Partly Cloudy SCT028 32 25 67% 39 76.4 0.0
28 09:53 SE 11 16.09 Partly Cloudy SCT024 32 26 71% 41 76.4 0.0
28 08:53 SE 15 16.09 A Few Clouds FEW020 31 26 75% 39 76.35 0.0
28 07:53 Calm 16.09 A Few Clouds FEW020 28 26 89% 34 76.33 0.0
28 07:38 Calm 16.09 Partly Cloudy SCT022 27 25 89% 31 76.33 0.0
28 06:15 N 4 16.09 A Few Clouds FEW021 FEW029 27 25 89% 31 76.28 0.0
28 05:55 NW 2 16.09 A Few Clouds FEW021 FEW029 26 25 94% 28 76.28 0.0
28 05:35 Calm 16.09 Fair CLR 26 25 94% 28 76.25 0.0
28 05:15 Vrbl 2 16.09 Fair CLR 27 25 89% 31 76.25 0.0
28 04:55 W 2 16.09 Fair CLR 26 24 89% 28 76.23 0.0
28 04:35 Calm 16.09 A Few Clouds FEW024 26 24 89% 28 76.23 0.0
28 04:15 W 2 16.09 Fair CLR 26 24 89% 28 76.25 0.0
28 03:55 W 2 16.09 Fair CLR 26 24 89% 28 76.25 0.0
28 03:35 E 2 16.09 Fair CLR 26 24 89% 28 76.23 0.0
28 03:15 Calm 16.09 Fair CLR 26 24 89% 28 76.23 0.0
Date Time (edt) Wind (kph) Vis. (km) Weather Sky Cond. Air Dwpt Max. Min. Relative Humidity Wind Chill (°C) Heat Index (°C) altimeter (cm) sea level (mb) 1 hr 3 hr 6 hr
6 hour
Temperature (ºC) Pressure Precipitation (cm)